Time;durP1;ratioP1;P1;durP2;ratioP2;P2;SDS_P1;SDS_P2;PMS_P1;PMS_P2;Temp;Humidity;BMP_temperature;BMP_pressure;BME280_temperature;BME280_humidity;BME280_pressure;Samples;Min_cycle;Max_cycle;Signal;HPM_P1;HPM_P2
2021/12/16 00:08:53;;;;;;;69.10;38.40;;;;;;;-144.19;100.00;78563.88;5012485;28;20061;-85
2021/12/16 00:19:28;;;;;;;67.35;35.85;;;;;;;-144.19;100.00;78573.72;5011845;28;20054;-86
2021/12/16 00:28:58;;;;;;;69.97;38.13;;;;;;;-144.19;100.00;78603.25;5011890;28;20050;-87
2021/12/16 00:34:03;;;;;;;71.22;39.63;;;;;;;-144.19;100.00;78607.19;4989624;28;20065;-87
2021/12/16 00:36:34;;;;;;;72.60;39.47;;;;;;;-144.19;100.00;78613.09;5010412;28;20058;-87
2021/12/16 00:39:05;;;;;;;71.93;41.20;;;;;;;-144.19;100.00;78599.31;5014140;28;20053;-85
2021/12/16 00:41:33;;;;;;;70.05;39.15;;;;;;;-144.19;100.00;78587.50;5015966;28;20061;-87
2021/12/16 00:44:21;;;;;;;64.25;37.95;;;;;;;-144.19;100.00;78579.63;5014564;28;20054;-88
2021/12/16 00:47:01;;;;;;;73.88;41.10;;;;;;;-144.19;100.00;78577.66;5015289;28;20064;-87
2021/12/16 00:54:46;;;;;;;74.97;42.40;;;;;;;-144.19;100.00;78599.31;4999410;28;20057;-86
2021/12/16 00:57:15;;;;;;;68.45;37.53;;;;;;;-144.19;100.00;78607.19;5014873;28;20058;-86
2021/12/16 00:59:46;;;;;;;63.80;36.55;;;;;;;-144.19;100.00;78605.22;5015917;28;20052;-87
2021/12/16 01:05:29;;;;;;;63.35;35.55;;;;;;;-144.19;100.00;78617.06;5015566;28;20064;-86
2021/12/16 01:08:24;;;;;;;64.63;37.15;;;;;;;-144.19;100.00;78626.91;5014915;28;20057;-86
2021/12/16 01:33:41;;;;;;;68.68;36.78;;;;;;;-144.19;100.00;78634.78;5014010;28;20431;-84
2021/12/16 01:36:23;;;;;;;73.07;38.05;;;;;;;-144.19;100.00;78634.78;5013547;28;20664;-85
2021/12/16 01:39:47;;;;;;;68.38;37.97;;;;;;;-144.19;100.00;78640.69;5012977;28;20050;-85
2021/12/16 01:47:41;;;;;;;59.65;33.30;;;;;;;-144.19;100.00;78634.78;5018179;28;20521;-85
2021/12/16 01:50:18;;;;;;;58.05;33.47;;;;;;;-144.19;100.00;78642.66;5015167;28;20488;-87
2021/12/16 01:55:34;;;;;;;58.05;34.00;;;;;;;-144.19;100.00;78638.72;5014639;28;20060;-87
2021/12/16 01:58:14;;;;;;;63.70;36.13;;;;;;;-144.19;100.00;78642.66;5013957;28;20049;-86
2021/12/16 02:01:17;;;;;;;68.80;37.22;;;;;;;-144.19;100.00;78622.97;5011515;28;20156;-85
2021/12/16 02:03:53;;;;;;;76.63;42.70;;;;;;;-144.19;100.00;78607.19;5012885;28;20096;-85
2021/12/16 02:09:24;;;;;;;81.45;42.38;;;;;;;-144.19;100.00;78591.44;5014189;28;20076;-87
2021/12/16 02:12:31;;;;;;;83.00;44.65;;;;;;;-144.19;100.00;78597.34;5013427;28;20056;-86
2021/12/16 02:36:43;;;;;;;85.80;46.45;;;;;;;-144.19;100.00;78561.91;5012423;28;20057;-84
2021/12/16 02:39:21;;;;;;;84.78;44.60;;;;;;;-144.19;100.00;78575.69;4994086;28;20060;-85
2021/12/16 02:41:50;;;;;;;85.97;44.40;;;;;;;-144.19;100.00;78571.75;4993276;28;20046;-84
2021/12/16 02:44:25;;;;;;;84.65;45.10;;;;;;;-144.19;100.00;78563.88;4993864;28;20050;-88
2021/12/16 02:49:46;;;;;;;84.78;44.80;;;;;;;-144.19;100.00;78563.88;4994471;28;20042;-86
2021/12/16 02:52:17;;;;;;;82.53;45.00;;;;;;;-144.19;100.00;78567.81;4999254;28;20061;-86
2021/12/16 02:54:44;;;;;;;78.25;42.95;;;;;;;-144.19;100.00;78569.78;5011102;28;20068;-83
2021/12/16 02:57:11;;;;;;;74.57;42.35;;;;;;;-144.19;100.00;78559.94;5011412;28;20432;-87
2021/12/16 02:59:39;;;;;;;92.00;46.53;;;;;;;-144.19;100.00;78548.13;5012239;28;20058;-87
2021/12/16 03:02:11;;;;;;;86.57;46.17;;;;;;;-144.19;100.00;78540.25;5011444;28;20057;-86
2021/12/16 03:04:42;;;;;;;79.07;43.65;;;;;;;-144.19;100.00;78538.28;5011145;28;20049;-82
2021/12/16 03:07:11;;;;;;;92.88;49.28;;;;;;;-144.19;100.00;78546.16;5010457;28;20060;-84
2021/12/16 03:15:34;;;;;;;79.55;42.22;;;;;;;-144.19;100.00;78526.47;4990116;28;20460;-87
2021/12/16 03:18:20;;;;;;;72.22;40.60;;;;;;;-144.19;100.00;78536.31;4989839;28;20108;-83
2021/12/16 03:20:54;;;;;;;85.10;42.72;;;;;;;-144.19;100.00;78514.63;5005184;28;20046;-85
2021/12/16 03:23:36;;;;;;;76.57;40.50;;;;;;;-144.19;100.00;78518.56;5012094;28;20056;-85
2021/12/16 03:38:53;;;;;;;87.82;44.20;;;;;;;-144.19;100.00;78516.59;5011557;28;20054;-85
2021/12/16 03:41:21;;;;;;;78.15;40.35;;;;;;;-144.19;100.00;78506.75;5011392;28;20081;-86
2021/12/16 03:43:49;;;;;;;83.53;41.33;;;;;;;-144.19;100.00;78516.59;5011947;28;20427;-84
2021/12/16 03:46:27;;;;;;;82.25;40.83;;;;;;;-144.19;100.00;78508.72;5009952;28;20049;-87
2021/12/16 03:49:23;;;;;;;77.40;40.42;;;;;;;-144.19;100.00;78500.84;5011752;28;20046;-84
2021/12/16 03:51:54;;;;;;;80.80;43.35;;;;;;;-144.19;100.00;78508.72;5008579;28;20046;-85
2021/12/16 03:54:28;;;;;;;82.43;41.75;;;;;;;-144.19;100.00;78504.78;5011865;28;20054;-87
2021/12/16 03:56:57;;;;;;;76.28;40.90;;;;;;;-144.19;100.00;78508.72;5009802;28;20054;-87
2021/12/16 03:59:26;;;;;;;75.78;40.58;;;;;;;-144.19;100.00;78518.56;5010448;28;20579;-87
2021/12/16 04:01:55;;;;;;;88.05;42.53;;;;;;;-144.19;100.00;78512.66;5009866;28;20064;-87
2021/12/16 04:04:22;;;;;;;82.97;42.60;;;;;;;-144.19;100.00;78528.44;5010112;28;20050;-85
2021/12/16 04:06:49;;;;;;;74.90;40.10;;;;;;;-144.19;100.00;78532.38;5009725;28;20050;-88
2021/12/16 04:09:17;;;;;;;74.75;38.70;;;;;;;-144.19;100.00;78526.47;5012136;28;20496;-86
2021/12/16 04:11:51;;;;;;;76.63;39.30;;;;;;;-144.19;100.00;78554.03;5013152;28;20045;-87
2021/12/16 04:14:18;;;;;;;81.35;38.47;;;;;;;-144.19;100.00;78534.34;5014078;28;20057;-85
2021/12/16 04:17:05;;;;;;;74.75;39.10;;;;;;;-144.19;100.00;78536.31;5013298;28;20061;-85
2021/12/16 04:19:33;;;;;;;72.22;37.63;;;;;;;-144.19;100.00;78528.44;5014716;28;20050;-84
2021/12/16 04:22:09;;;;;;;75.55;39.47;;;;;;;-144.19;100.00;78528.44;5013801;28;20053;-85
2021/12/16 04:24:38;;;;;;;77.75;39.88;;;;;;;-144.19;100.00;78532.38;5014384;28;20054;-89
2021/12/16 04:27:07;;;;;;;76.38;39.15;;;;;;;-144.19;100.00;78508.72;5013318;28;20050;-86
2021/12/16 04:29:33;;;;;;;75.40;38.92;;;;;;;-144.19;100.00;78524.50;5015778;28;20061;-87
2021/12/16 04:32:00;;;;;;;71.20;37.00;;;;;;;-144.19;100.00;78516.59;5014890;28;20050;-87
2021/12/16 04:34:27;;;;;;;76.30;39.15;;;;;;;-144.19;100.00;78532.38;5015994;28;20281;-86
2021/12/16 04:36:55;;;;;;;74.25;36.75;;;;;;;-144.19;100.00;78528.44;5015192;28;20524;-87
2021/12/16 04:39:25;;;;;;;73.25;37.58;;;;;;;-144.19;100.00;78534.34;5015231;28;20046;-89
2021/12/16 04:41:54;;;;;;;78.88;38.08;;;;;;;-144.19;100.00;78538.28;5014052;28;20053;-92
2021/12/16 04:44:23;;;;;;;78.60;37.67;;;;;;;-144.19;100.00;78548.13;5015214;28;20058;-87
2021/12/16 04:46:51;;;;;;;73.20;38.10;;;;;;;-144.19;100.00;78557.97;5015550;28;20054;-86
2021/12/16 04:49:18;;;;;;;79.53;38.42;;;;;;;-144.19;100.00;78544.19;5014708;28;20062;-88
2021/12/16 04:51:53;;;;;;;75.88;37.63;;;;;;;-144.19;100.00;78544.19;5014651;28;20053;-88
2021/12/16 04:54:23;;;;;;;76.93;37.22;;;;;;;-144.19;100.00;78565.84;5014275;28;20049;-89
2021/12/16 04:56:52;;;;;;;74.75;36.50;;;;;;;-144.19;100.00;78565.84;5015447;28;20060;-90
2021/12/16 04:59:20;;;;;;;70.70;38.42;;;;;;;-144.19;100.00;78557.97;5016086;28;20056;-90
2021/12/16 05:01:51;;;;;;;75.93;38.30;;;;;;;-144.19;100.00;78573.72;5012238;28;20056;-87
2021/12/16 05:04:23;;;;;;;82.95;38.40;;;;;;;-144.19;100.00;78548.13;5014862;28;20049;-86
2021/12/16 05:06:51;;;;;;;75.88;38.30;;;;;;;-144.19;100.00;78571.75;5010517;28;20500;-85
2021/12/16 05:09:51;;;;;;;73.75;37.10;;;;;;;-144.19;100.00;78579.63;5010758;28;20064;-84
2021/12/16 05:12:13;;;;;;;72.70;36.22;;;;;;;-144.19;100.00;78579.63;5013764;28;20045;-86
2021/12/16 05:14:40;;;;;;;74.28;36.65;;;;;;;-144.19;100.00;78565.84;5014572;28;20053;-85
2021/12/16 05:17:15;;;;;;;75.28;36.53;;;;;;;-144.19;100.00;78571.75;5012609;28;20054;-85
2021/12/16 05:19:49;;;;;;;79.85;37.00;;;;;;;-144.19;100.00;78571.75;5012541;28;20046;-82
2021/12/16 05:25:01;;;;;;;79.25;37.63;;;;;;;-144.19;100.00;78603.25;5011857;28;20045;-86
2021/12/16 05:27:27;;;;;;;72.65;37.58;;;;;;;-144.19;100.00;78579.63;5012316;28;20401;-87
2021/12/16 05:29:53;;;;;;;74.82;36.47;;;;;;;-144.19;100.00;78595.38;5013109;28;20054;-90
2021/12/16 05:32:24;;;;;;;72.90;35.50;;;;;;;-144.19;100.00;78585.53;5014086;28;20045;-87
2021/12/16 05:34:51;;;;;;;72.68;37.10;;;;;;;-144.19;100.00;78573.72;5012684;28;20056;-85
2021/12/16 05:37:17;;;;;;;71.77;35.50;;;;;;;-144.19;100.00;78591.44;5012453;28;20049;-87
2021/12/16 05:39:44;;;;;;;73.20;34.43;;;;;;;-144.19;100.00;78595.38;5012644;28;20049;-86
2021/12/16 05:42:10;;;;;;;74.10;35.38;;;;;;;-144.19;100.00;78615.09;5011413;28;20305;-85
2021/12/16 05:44:37;;;;;;;71.20;37.03;;;;;;;-144.19;100.00;78617.06;5014314;28;20058;-85
2021/12/16 05:47:04;;;;;;;72.53;35.07;;;;;;;-144.19;100.00;78630.84;5012332;28;20293;-85
2021/12/16 05:49:30;;;;;;;67.22;32.67;;;;;;;-144.19;100.00;78638.72;5012317;28;20053;-86
2021/12/16 05:51:57;;;;;;;70.85;34.53;;;;;;;-144.19;100.00;78615.09;5013309;28;20057;-85
2021/12/16 05:54:23;;;;;;;69.53;34.60;;;;;;;-144.19;100.00;78622.97;5012365;28;20061;-85
2021/12/16 05:56:50;;;;;;;75.00;35.17;;;;;;;-144.19;100.00;78636.75;5012431;28;20056;-86
2021/12/16 05:59:18;;;;;;;80.13;36.17;;;;;;;-144.19;100.00;78630.84;5013283;28;20060;-83
2021/12/16 06:01:47;;;;;;;76.57;35.60;;;;;;;-144.19;100.00;78638.72;5013118;28;20069;-84
2021/12/16 06:04:14;;;;;;;74.40;36.10;;;;;;;-144.19;100.00;78650.53;5012188;28;20057;-86
2021/12/16 06:06:41;;;;;;;81.28;36.42;;;;;;;-144.19;100.00;78630.84;5011568;28;20045;-86
2021/12/16 06:09:09;;;;;;;73.57;35.78;;;;;;;-144.19;100.00;78644.63;5012294;28;20046;-85
2021/12/16 06:11:39;;;;;;;84.53;35.05;;;;;;;-144.19;100.00;78654.47;5011289;28;20056;-85
2021/12/16 06:14:26;;;;;;;74.35;34.60;;;;;;;-144.19;100.00;78656.44;5011244;28;20049;-86
2021/12/16 06:28:05;;;;;;;74.65;36.05;;;;;;;-144.19;100.00;78658.41;5012316;28;20052;-85
2021/12/16 06:30:36;;;;;;;80.20;34.63;;;;;;;-144.19;100.00;78666.28;5012748;28;20053;-86
2021/12/16 06:33:06;;;;;;;73.70;33.67;;;;;;;-144.19;100.00;78662.34;5011610;28;20049;-87
2021/12/16 06:35:32;;;;;;;72.85;35.10;;;;;;;-144.19;100.00;78660.38;5011152;28;20046;-85
2021/12/16 06:37:59;;;;;;;77.45;36.00;;;;;;;-144.19;100.00;78670.22;5011642;28;20053;-85
2021/12/16 06:40:26;;;;;;;78.53;36.10;;;;;;;-144.19;100.00;78662.34;5012219;28;20057;-85
2021/12/16 06:42:55;;;;;;;78.60;36.83;;;;;;;-144.19;100.00;78658.41;5010847;28;20056;-86
2021/12/16 06:45:30;;;;;;;74.50;35.55;;;;;;;-144.19;100.00;78666.28;5013363;28;20109;-85
2021/12/16 06:48:05;;;;;;;77.07;36.53;;;;;;;-144.19;100.00;78658.41;5010974;28;20064;-86
2021/12/16 06:50:54;;;;;;;79.20;35.35;;;;;;;-144.19;100.00;78674.16;5009918;28;20056;-86
2021/12/16 06:53:35;;;;;;;79.63;36.38;;;;;;;-144.19;100.00;78666.28;5008384;28;20418;-87
2021/12/16 07:01:18;;;;;;;81.45;38.20;;;;;;;-144.19;100.00;78684.00;5010455;28;20048;-86
2021/12/16 07:03:49;;;;;;;98.13;40.60;;;;;;;-144.19;100.00;78678.09;5011887;28;20516;-87
2021/12/16 07:06:21;;;;;;;82.47;35.97;;;;;;;-144.19;100.00;78678.09;4993036;28;20050;-88
2021/12/16 07:08:55;;;;;;;84.25;35.95;;;;;;;-144.19;100.00;78670.22;5011685;28;20050;-87
2021/12/16 07:11:23;;;;;;;89.05;38.65;;;;;;;-144.19;100.00;78672.19;5010148;28;20053;-88
2021/12/16 07:13:58;;;;;;;94.55;38.97;;;;;;;-144.19;100.00;78674.16;5011276;28;20050;-89
2021/12/16 07:16:27;;;;;;;91.57;39.10;;;;;;;-144.19;100.00;78685.97;5011923;28;20054;-87
2021/12/16 07:18:55;;;;;;;87.18;37.40;;;;;;;-144.19;100.00;78693.84;5010746;28;20046;-87
2021/12/16 07:21:23;;;;;;;81.85;37.60;;;;;;;-144.19;100.00;78697.78;5011607;28;20046;-86
2021/12/16 07:23:51;;;;;;;91.93;40.45;;;;;;;-144.19;100.00;78707.66;5009029;28;20427;-86
2021/12/16 07:26:18;;;;;;;87.82;38.47;;;;;;;-144.19;100.00;78697.78;5008940;28;20058;-85
2021/12/16 07:28:44;;;;;;;88.18;38.20;;;;;;;-144.19;100.00;78701.72;5010935;28;20056;-89
2021/12/16 07:31:10;;;;;;;84.47;38.17;;;;;;;-144.19;100.00;78713.56;5012966;28;20056;-88
2021/12/16 07:33:37;;;;;;;86.63;39.13;;;;;;;-144.19;100.00;78713.56;5012881;28;20065;-90
2021/12/16 07:36:04;;;;;;;97.80;41.80;;;;;;;-144.19;100.00;78703.72;5012291;28;20056;-85
2021/12/16 07:38:30;;;;;;;91.57;39.38;;;;;;;-144.19;100.00;78713.56;5009945;28;20058;-89
2021/12/16 07:40:57;;;;;;;93.93;38.73;;;;;;;-144.19;100.00;78729.31;5010996;28;20050;-84
2021/12/16 07:43:57;;;;;;;96.53;40.53;;;;;;;-144.19;100.00;78729.31;5011750;28;20050;-86
2021/12/16 07:46:12;;;;;;;98.18;41.78;;;;;;;-144.19;100.00;78703.72;5011280;28;20056;-88
2021/12/16 07:48:39;;;;;;;103.07;44.95;;;;;;;-144.19;100.00;78725.38;5011855;28;20496;-86
2021/12/16 07:51:07;;;;;;;94.55;42.38;;;;;;;-144.19;100.00;78721.44;5010469;28;20046;-87
2021/12/16 07:53:34;;;;;;;95.00;41.10;;;;;;;-144.19;100.00;78721.44;5010717;28;20427;-87
2021/12/16 07:56:01;;;;;;;97.65;42.45;;;;;;;-144.19;100.00;78733.25;5011311;28;20057;-86
2021/12/16 07:58:27;;;;;;;101.25;43.85;;;;;;;-144.19;100.00;78737.19;5011836;28;20050;-85
2021/12/16 08:00:58;;;;;;;98.70;41.33;;;;;;;-144.19;100.00;78749.00;5012378;28;20053;-84
2021/12/16 08:03:40;;;;;;;96.00;40.67;;;;;;;-144.19;100.00;78737.19;5012759;28;20060;-87
2021/12/16 08:06:21;;;;;;;89.95;41.20;;;;;;;-144.19;100.00;78725.38;5010454;28;20050;-86
2021/12/16 08:08:50;;;;;;;100.97;41.88;;;;;;;-144.19;100.00;78721.44;5010329;28;20054;-86
2021/12/16 08:11:17;;;;;;;89.38;39.63;;;;;;;-144.19;100.00;78725.38;5010136;28;20455;-84
2021/12/16 08:13:43;;;;;;;;;;;;;;;-144.19;100.00;78719.47;5012208;28;20057;-87
2021/12/16 08:16:10;;;;;;;96.05;41.22;;;;;;;-144.19;100.00;78725.38;5009168;28;19988;-86
2021/12/16 08:18:37;;;;;;;111.10;43.53;;;;;;;-144.19;100.00;78713.56;5010784;28;20058;-84
2021/12/16 08:21:04;;;;;;;102.72;43.33;;;;;;;-144.19;100.00;78715.53;5008105;28;20420;-87
2021/12/16 08:23:31;;;;;;;102.25;44.88;;;;;;;-144.19;100.00;78717.50;5008502;28;20053;-85
2021/12/16 08:25:58;;;;;;;102.90;45.28;;;;;;;-144.19;100.00;78705.66;5009913;28;20061;-86
2021/12/16 08:28:27;;;;;;;99.88;43.83;;;;;;;-144.19;100.00;78711.59;4993152;28;20047;-85
2021/12/16 08:30:54;;;;;;;101.78;43.35;;;;;;;-144.19;100.00;78705.66;4992204;28;20398;-86
2021/12/16 08:33:21;;;;;;;109.90;43.72;;;;;;;-144.19;100.00;78705.66;5008128;28;20057;-86
2021/12/16 08:35:52;;;;;;;98.55;42.78;;;;;;;-144.19;100.00;78705.66;5032250;28;20515;-85
2021/12/16 08:38:23;;;;;;;98.03;44.70;;;;;;;-144.19;100.00;78703.72;5009141;28;20108;-88
2021/12/16 08:40:52;;;;;;;100.28;42.95;;;;;;;-144.19;100.00;78717.50;5011492;28;20057;-86
2021/12/16 08:43:22;;;;;;;108.13;43.22;;;;;;;-144.19;100.00;78727.34;5011023;28;20050;-84
2021/12/16 08:45:52;;;;;;;92.75;40.75;;;;;;;-144.19;100.00;78735.22;5009640;28;20057;-85
2021/12/16 08:48:19;;;;;;;90.70;39.95;;;;;;;-144.19;100.00;78719.47;5009933;28;20064;-84
2021/12/16 08:50:49;;;;;;;92.67;41.10;;;;;;;-144.19;100.00;78705.66;5010202;28;20107;-84
2021/12/16 08:53:17;;;;;;;93.63;40.65;;;;;;;-144.19;100.00;78699.75;5010653;28;20050;-82
2021/12/16 08:55:45;;;;;;;99.70;41.53;;;;;;;-144.19;100.00;78705.66;5012384;28;20050;-84
2021/12/16 08:58:12;;;;;;;100.90;42.15;;;;;;;-144.19;100.00;78693.84;5012986;28;20496;-85
2021/12/16 09:00:43;;;;;;;98.83;42.57;;;;;;;-144.19;100.00;78705.66;5013825;28;20419;-87
2021/12/16 09:03:11;;;;;;;101.20;43.17;;;;;;;-144.19;100.00;78699.75;5014462;28;20046;-85
2021/12/16 09:05:38;;;;;;;101.60;45.05;;;;;;;-144.19;100.00;78729.31;5013135;28;20132;-86
2021/12/16 09:08:05;;;;;;;97.35;43.65;;;;;;;-144.19;100.00;78715.53;5012369;28;20060;-84
2021/12/16 09:10:34;;;;;;;106.68;47.88;;;;;;;-144.19;100.00;78713.56;5014520;28;20496;-84
2021/12/16 09:13:05;;;;;;;84.75;40.33;;;;;;;-144.19;100.00;78717.50;5014217;28;20050;-87
2021/12/16 09:15:45;;;;;;;86.22;41.28;;;;;;;-144.19;100.00;78713.56;5014741;28;20061;-85
2021/12/16 09:18:14;;;;;;;93.13;39.20;;;;;;;-144.19;100.00;78695.81;5013970;28;20073;-87
2021/12/16 09:20:40;;;;;;;95.70;40.15;;;;;;;-144.19;100.00;78693.84;5026509;28;20057;-84
2021/12/16 09:23:09;;;;;;;105.47;40.93;;;;;;;-144.19;100.00;78691.88;5015483;28;20053;-87
2021/12/16 09:25:36;;;;;;;89.10;39.17;;;;;;;-144.19;100.00;78717.50;5013237;28;20064;-85
2021/12/16 09:28:03;;;;;;;;;;;;;;;-144.19;100.00;78715.53;5013329;28;20427;-86
2021/12/16 09:30:31;;;;;;;89.43;37.72;;;;;;;-144.19;100.00;78717.50;5014454;28;19921;-85
2021/12/16 09:33:00;;;;;;;91.97;40.88;;;;;;;-144.19;100.00;78701.72;5012903;28;20053;-85
2021/12/16 09:35:29;;;;;;;84.72;39.03;;;;;;;-144.19;100.00;78721.44;5014462;28;20051;-85
2021/12/16 09:37:58;;;;;;;87.85;38.30;;;;;;;-144.19;100.00;78717.50;5012075;28;20088;-84
2021/12/16 09:40:27;;;;;;;90.30;39.75;;;;;;;-144.19;100.00;78717.50;5012392;28;20053;-84
2021/12/16 09:42:54;;;;;;;92.22;41.35;;;;;;;-144.19;100.00;78691.88;5013780;28;20522;-84
2021/12/16 09:45:21;;;;;;;88.13;39.20;;;;;;;-144.19;100.00;78721.44;5011757;28;20061;-84
2021/12/16 09:47:51;;;;;;;84.85;36.45;;;;;;;-144.19;100.00;78711.59;5012696;28;20061;-86
2021/12/16 09:50:23;;;;;;;94.45;41.70;;;;;;;-144.19;100.00;78703.72;5013350;28;20671;-87
2021/12/16 09:52:50;;;;;;;90.07;41.97;;;;;;;-144.19;100.00;78721.44;5012647;28;20057;-86
2021/12/16 09:55:16;;;;;;;89.82;39.40;;;;;;;-144.19;100.00;78715.53;5011935;28;20046;-87
2021/12/16 09:57:44;;;;;;;91.18;39.83;;;;;;;-144.19;100.00;78739.16;5013424;28;20427;-89
2021/12/16 10:00:14;;;;;;;92.55;38.72;;;;;;;-144.19;100.00;78729.31;5013963;28;20050;-85
2021/12/16 10:02:41;;;;;;;83.50;39.50;;;;;;;-144.19;100.00;78729.31;5017142;28;20042;-85
2021/12/16 10:05:08;;;;;;;96.20;39.47;;;;;;;-144.19;100.00;78717.50;5017493;28;20092;-84
2021/12/16 10:07:37;;;;;;;90.95;41.00;;;;;;;-144.19;100.00;78721.44;5016482;28;20431;-83
2021/12/16 10:10:11;;;;;;;92.45;39.65;;;;;;;-144.19;100.00;78725.38;5015631;28;20073;-86
2021/12/16 10:12:41;;;;;;;88.95;37.90;;;;;;;-144.19;100.00;78737.19;5015074;28;20049;-86
2021/12/16 10:18:11;;;;;;;84.68;39.65;;;;;;;-144.19;100.00;78727.34;5014447;28;20049;-83
2021/12/16 10:20:42;;;;;;;83.20;36.35;;;;;;;-144.19;100.00;78731.28;5015543;28;20056;-84
2021/12/16 10:23:22;;;;;;;82.55;38.20;;;;;;;-144.19;100.00;78717.50;5013101;28;20052;-87
2021/12/16 10:25:55;;;;;;;93.57;41.03;;;;;;;-144.19;100.00;78701.72;5012014;28;20424;-84
2021/12/16 10:28:25;;;;;;;86.65;38.83;;;;;;;-144.19;100.00;78723.41;5012198;28;20054;-85
2021/12/16 10:31:10;;;;;;;89.75;39.55;;;;;;;-144.19;100.00;78721.44;5013381;28;20109;-85
2021/12/16 10:33:43;;;;;;;86.93;36.35;;;;;;;-144.19;100.00;78717.50;5012248;28;20413;-87
2021/12/16 10:36:12;;;;;;;91.10;41.65;;;;;;;-144.19;100.00;78709.63;5012666;28;20050;-85
2021/12/16 10:39:28;;;;;;;86.38;41.65;;;;;;;-144.19;100.00;78729.31;5012084;28;20420;-88
2021/12/16 10:42:00;;;;;;;90.05;39.53;;;;;;;-144.19;100.00;78705.66;5012183;28;20514;-86
2021/12/16 10:44:30;;;;;;;88.32;38.05;;;;;;;-144.19;100.00;78693.84;5012222;28;20058;-85
2021/12/16 10:47:01;;;;;;;85.05;37.90;;;;;;;-144.19;100.00;78713.56;5012565;28;20049;-84
2021/12/16 10:49:37;;;;;;;92.65;40.88;;;;;;;-144.19;100.00;78733.25;5013608;28;20058;-88
2021/12/16 10:52:15;;;;;;;83.22;37.45;;;;;;;-144.19;100.00;78741.13;5012617;28;20257;-83
2021/12/16 10:54:44;;;;;;;85.05;40.08;;;;;;;-144.19;100.00;78725.38;5012137;28;20128;-87
2021/12/16 10:57:22;;;;;;;82.35;38.28;;;;;;;-144.19;100.00;78725.38;5010973;28;20129;-87
2021/12/16 10:59:50;;;;;;;;;;;;;;;-144.19;100.00;78717.50;5012056;28;20496;-84
2021/12/16 11:02:32;;;;;;;78.55;36.88;;;;;;;-144.19;100.00;78717.50;5011683;28;19928;-85
2021/12/16 11:05:23;;;;;;;82.40;37.45;;;;;;;-144.19;100.00;78729.31;5012360;28;20196;-87
2021/12/16 11:07:56;;;;;;;86.20;37.47;;;;;;;-144.19;100.00;78737.19;5012832;28;20428;-85
2021/12/16 11:10:25;;;;;;;83.25;40.15;;;;;;;-144.19;100.00;78737.19;5011520;28;20069;-83
2021/12/16 11:13:00;;;;;;;79.50;38.92;;;;;;;-144.19;100.00;78737.19;5011114;28;20053;-87
2021/12/16 11:15:33;;;;;;;85.05;37.47;;;;;;;-144.19;100.00;78725.38;5010597;28;20045;-87
2021/12/16 11:18:09;;;;;;;84.18;39.10;;;;;;;-144.19;100.00;78705.66;5008276;28;20492;-86
2021/12/16 11:20:45;;;;;;;83.03;40.28;;;;;;;-144.19;100.00;78727.34;5011085;28;20065;-85
2021/12/16 11:23:20;;;;;;;80.55;37.17;;;;;;;-144.19;100.00;78705.66;5009874;28;20042;-85
2021/12/16 11:25:49;;;;;;;85.63;39.05;;;;;;;-144.19;100.00;78699.75;5010355;28;20056;-82
2021/12/16 11:28:20;;;;;;;80.80;37.60;;;;;;;-144.19;100.00;78705.66;5011382;28;20076;-86
2021/12/16 11:30:58;;;;;;;81.47;38.90;;;;;;;-144.19;100.00;78705.66;5011361;28;20518;-83
2021/12/16 11:33:46;;;;;;;;;;;;;;;-144.19;100.00;78713.56;5012555;28;20517;-84
2021/12/16 11:36:14;;;;;;;83.82;38.50;;;;;;;-144.19;100.00;78705.66;5010262;28;19921;-87
2021/12/16 11:38:44;;;;;;;84.25;39.38;;;;;;;-144.19;100.00;78691.88;5011247;28;20053;-88
2021/12/16 11:41:12;;;;;;;87.10;39.22;;;;;;;-144.19;100.00;78670.22;5012082;28;20048;-87
2021/12/16 11:43:47;;;;;;;82.85;38.38;;;;;;;-144.19;100.00;78697.78;5011411;28;20049;-86
2021/12/16 11:46:22;;;;;;;80.50;36.97;;;;;;;-144.19;100.00;78693.84;5010931;28;20058;-84
2021/12/16 11:49:14;;;;;;;80.35;37.78;;;;;;;-144.19;100.00;78713.56;5012266;28;20068;-85
2021/12/16 11:51:46;;;;;;;73.38;36.80;;;;;;;-144.19;100.00;78697.78;5011226;28;20053;-90
2021/12/16 11:54:26;;;;;;;80.28;38.50;;;;;;;-144.19;100.00;78685.97;5012679;28;20050;-86
2021/12/16 11:57:35;;;;;;;78.10;36.63;;;;;;;-144.19;100.00;78709.63;4991957;28;20051;-86
2021/12/16 12:00:12;;;;;;;76.22;36.08;;;;;;;-144.19;100.00;78693.84;5009175;28;20046;-86
2021/12/16 12:02:43;;;;;;;73.45;33.40;;;;;;;-144.19;100.00;78697.78;5008759;28;20062;-85
2021/12/16 12:05:24;;;;;;;78.47;35.38;;;;;;;-144.19;100.00;78705.66;5010104;28;20045;-89
2021/12/16 12:08:04;;;;;;;82.65;37.38;;;;;;;-144.19;100.00;78684.00;5010811;28;20049;-86
2021/12/16 12:11:00;;;;;;;78.43;37.88;;;;;;;-144.19;100.00;78685.97;5011763;28;20065;-88
2021/12/16 12:13:30;;;;;;;83.47;38.55;;;;;;;-144.19;100.00;78670.22;5010474;28;20049;-86
2021/12/16 12:15:58;;;;;;;84.80;38.08;;;;;;;-144.19;100.00;78670.22;5010978;28;20052;-86
2021/12/16 12:18:47;;;;;;;86.68;38.08;;;;;;;-144.19;100.00;78691.88;5010962;28;20108;-89
2021/12/16 12:22:00;;;;;;;83.82;37.30;;;;;;;-144.19;100.00;78682.03;5012304;28;20049;-86
2021/12/16 12:24:32;;;;;;;77.25;38.63;;;;;;;-144.19;100.00;78666.28;5012243;28;20054;-85
2021/12/16 12:27:00;;;;;;;81.72;38.17;;;;;;;-144.19;100.00;78666.28;5012063;28;20054;-83
2021/12/16 12:29:31;;;;;;;88.55;39.38;;;;;;;-144.19;100.00;78666.28;5012541;28;20049;-86
2021/12/16 12:32:03;;;;;;;81.13;39.50;;;;;;;-144.19;100.00;78680.06;5014013;28;20500;-87
2021/12/16 12:34:30;;;;;;;74.90;36.05;;;;;;;-144.19;100.00;78672.19;5013855;28;20050;-85
2021/12/16 12:37:01;;;;;;;81.15;39.33;;;;;;;-144.19;100.00;78687.94;5015136;28;20137;-84
2021/12/16 12:39:35;;;;;;;82.00;37.65;;;;;;;-144.19;100.00;78666.28;5013090;28;20068;-87
2021/12/16 12:42:03;;;;;;;75.90;35.70;;;;;;;-144.19;100.00;78682.03;5014036;28;20056;-84
2021/12/16 12:44:29;;;;;;;;;;;;;;;-144.19;100.00;78654.47;5015275;28;20057;-85
2021/12/16 12:47:00;;;;;;;75.07;35.38;;;;;;;-144.19;100.00;78668.25;5014307;28;19922;-86
2021/12/16 12:49:29;;;;;;;71.57;35.15;;;;;;;-144.19;100.00;78670.22;5013831;28;20069;-87
2021/12/16 12:52:15;;;;;;;71.78;33.35;;;;;;;-144.19;100.00;78689.91;5015618;28;20050;-90
2021/12/16 12:54:45;;;;;;;82.78;36.40;;;;;;;-144.19;100.00;78680.06;5014909;28;20049;-85
2021/12/16 12:57:25;;;;;;;75.50;34.90;;;;;;;-144.19;100.00;78678.09;5014177;28;20426;-87
2021/12/16 12:59:53;;;;;;;70.28;34.10;;;;;;;-144.19;100.00;78689.91;5012578;28;20504;-86
2021/12/16 13:02:23;;;;;;;67.75;34.50;;;;;;;-144.19;100.00;78680.06;5015599;28;20046;-86
2021/12/16 13:04:59;;;;;;;76.70;35.90;;;;;;;-144.19;100.00;78689.91;5014206;28;20061;-87
2021/12/16 13:07:37;;;;;;;78.05;37.65;;;;;;;-144.19;100.00;78634.78;5010876;28;20064;-87
2021/12/16 13:10:13;;;;;;;69.47;35.30;;;;;;;-144.19;100.00;78666.28;5015405;28;20068;-89
2021/12/16 13:15:32;;;;;;;73.78;36.10;;;;;;;-144.19;100.00;78654.47;5019014;28;20308;-88
2021/12/16 13:27:04;;;;;;;74.22;36.25;;;;;;;-144.19;100.00;78634.78;5016293;28;20046;-85
2021/12/16 13:29:39;;;;;;;74.72;35.42;;;;;;;-144.19;100.00;78644.63;5014246;28;20516;-84
2021/12/16 13:32:20;;;;;;;76.68;35.90;;;;;;;-144.19;100.00;78642.66;5013436;28;20414;-86
2021/12/16 13:37:45;;;;;;;73.15;35.97;;;;;;;-144.19;100.00;78634.78;5016022;28;20052;-87
2021/12/16 13:40:24;;;;;;;77.20;36.92;;;;;;;-144.19;100.00;78640.69;5015406;28;20052;-86
2021/12/16 13:42:58;;;;;;;76.38;36.38;;;;;;;-144.19;100.00;78636.75;5012225;28;20516;-82
2021/12/16 13:45:35;;;;;;;81.32;36.25;;;;;;;-144.19;100.00;78622.97;5015351;28;20149;-88